sensor_id;sensor_type;location;lat;lon;timestamp;pressure;altitude;pressure_sealevel;temperature;humidity
52185;BME280;38160;52.876;18.778;2022-12-10T00:00:37;100090.02;;;0.21;97.53
52185;BME280;38160;52.876;18.778;2022-12-10T00:03:11;100081.56;;;0.22;97.53
52185;BME280;38160;52.876;18.778;2022-12-10T00:05:42;100080.98;;;0.24;97.51
52185;BME280;38160;52.876;18.778;2022-12-10T00:08:14;100080.23;;;0.22;97.19
52185;BME280;38160;52.876;18.778;2022-12-10T01:58:43;100065.14;;;0.16;97.71
52185;BME280;38160;52.876;18.778;2022-12-10T02:01:26;100068.53;;;0.18;97.82
52185;BME280;38160;52.876;18.778;2022-12-10T06:35:01;100127.58;;;0.09;98.12
52185;BME280;38160;52.876;18.778;2022-12-10T06:37:34;100116.08;;;0.03;98.07
52185;BME280;38160;52.876;18.778;2022-12-10T06:59:06;100135.81;;;-0.01;98.31
52185;BME280;38160;52.876;18.778;2022-12-10T07:01:38;100129.57;;;0.00;98.58
52185;BME280;38160;52.876;18.778;2022-12-10T07:13:01;100142.02;;;0.05;98.33
52185;BME280;38160;52.876;18.778;2022-12-10T08:10:48;100142.09;;;0.16;98.43
52185;BME280;38160;52.876;18.778;2022-12-10T08:13:20;100142.45;;;0.17;98.41
52185;BME280;38160;52.876;18.778;2022-12-10T08:15:51;100141.41;;;0.20;98.47
52185;BME280;38160;52.876;18.778;2022-12-10T08:18:23;100145.51;;;0.24;98.54
52185;BME280;38160;52.876;18.778;2022-12-10T08:20:55;100140.84;;;0.28;98.43
52185;BME280;38160;52.876;18.778;2022-12-10T08:23:26;100141.81;;;0.27;98.32
52185;BME280;38160;52.876;18.778;2022-12-10T08:26:05;100143.39;;;0.29;98.53
52185;BME280;38160;52.876;18.778;2022-12-10T08:31:26;100145.66;;;0.28;98.18
52185;BME280;38160;52.876;18.778;2022-12-10T08:37:13;100148.55;;;0.25;98.19
52185;BME280;38160;52.876;18.778;2022-12-10T08:42:30;100153.75;;;0.27;98.27
52185;BME280;38160;52.876;18.778;2022-12-10T08:47:54;100155.92;;;0.27;98.22
52185;BME280;38160;52.876;18.778;2022-12-10T08:50:26;100151.10;;;0.27;98.21
52185;BME280;38160;52.876;18.778;2022-12-10T08:53:36;100148.31;;;0.28;98.21
52185;BME280;38160;52.876;18.778;2022-12-10T08:56:08;100148.70;;;0.29;97.93
52185;BME280;38160;52.876;18.778;2022-12-10T08:58:51;100153.52;;;0.30;98.15
52185;BME280;38160;52.876;18.778;2022-12-10T09:01:26;100149.19;;;0.29;97.90
52185;BME280;38160;52.876;18.778;2022-12-10T09:03:58;100149.55;;;0.30;98.07
52185;BME280;38160;52.876;18.778;2022-12-10T09:06:30;100147.73;;;0.30;97.93
52185;BME280;38160;52.876;18.778;2022-12-10T09:09:04;100153.91;;;0.31;97.97
52185;BME280;38160;52.876;18.778;2022-12-10T09:11:36;100151.02;;;0.34;98.03
52185;BME280;38160;52.876;18.778;2022-12-10T09:14:08;100161.99;;;0.35;97.88
52185;BME280;38160;52.876;18.778;2022-12-10T09:16:40;100161.89;;;0.36;97.93
52185;BME280;38160;52.876;18.778;2022-12-10T09:19:14;100160.31;;;0.34;97.65
52185;BME280;38160;52.876;18.778;2022-12-10T09:21:46;100165.23;;;0.33;97.58
52185;BME280;38160;52.876;18.778;2022-12-10T09:24:18;100160.55;;;0.31;97.57
52185;BME280;38160;52.876;18.778;2022-12-10T09:26:50;100156.81;;;0.33;97.55
52185;BME280;38160;52.876;18.778;2022-12-10T09:29:21;100159.47;;;0.33;97.36
52185;BME280;38160;52.876;18.778;2022-12-10T09:32:05;100155.94;;;0.33;97.55
52185;BME280;38160;52.876;18.778;2022-12-10T09:34:42;100151.27;;;0.36;97.72
52185;BME280;38160;52.876;18.778;2022-12-10T10:15:16;100153.78;;;0.51;96.99
52185;BME280;38160;52.876;18.778;2022-12-10T10:17:53;100151.13;;;0.51;97.09
52185;BME280;38160;52.876;18.778;2022-12-10T11:43:30;100109.45;;;0.70;96.89
52185;BME280;38160;52.876;18.778;2022-12-10T12:01:56;100098.23;;;0.72;96.16
52185;BME280;38160;52.876;18.778;2022-12-10T12:04:43;100100.16;;;0.70;96.13
52185;BME280;38160;52.876;18.778;2022-12-10T12:11:50;100090.72;;;0.66;96.38
52185;BME280;38160;52.876;18.778;2022-12-10T12:14:48;100093.95;;;0.58;96.30
52185;BME280;38160;52.876;18.778;2022-12-10T12:17:26;100102.17;;;0.60;96.62
52185;BME280;38160;52.876;18.778;2022-12-10T12:23:27;100104.67;;;0.51;95.75
52185;BME280;38160;52.876;18.778;2022-12-10T12:26:04;100108.99;;;0.46;96.36
52185;BME280;38160;52.876;18.778;2022-12-10T12:28:46;100110.08;;;0.49;96.56
52185;BME280;38160;52.876;18.778;2022-12-10T12:31:35;100114.70;;;0.53;96.41
52185;BME280;38160;52.876;18.778;2022-12-10T12:34:26;100115.41;;;0.55;96.30
52185;BME280;38160;52.876;18.778;2022-12-10T12:37:00;100107.83;;;0.56;96.43
52185;BME280;38160;52.876;18.778;2022-12-10T12:42:46;100095.63;;;0.59;96.15
52185;BME280;38160;52.876;18.778;2022-12-10T12:45:21;100094.90;;;0.57;95.78
52185;BME280;38160;52.876;18.778;2022-12-10T12:48:29;100103.73;;;0.57;95.91
52185;BME280;38160;52.876;18.778;2022-12-10T12:51:26;100112.64;;;0.56;96.06
52185;BME280;38160;52.876;18.778;2022-12-10T12:54:02;100108.02;;;0.47;95.92
52185;BME280;38160;52.876;18.778;2022-12-10T12:59:57;100122.87;;;0.50;96.06
52185;BME280;38160;52.876;18.778;2022-12-10T13:05:34;100138.06;;;0.48;96.00
52185;BME280;38160;52.876;18.778;2022-12-10T13:08:21;100137.12;;;0.49;95.96
52185;BME280;38160;52.876;18.778;2022-12-10T13:14:10;100138.20;;;0.52;95.99
52185;BME280;38160;52.876;18.778;2022-12-10T13:22:11;100144.41;;;0.58;95.89
52185;BME280;38160;52.876;18.778;2022-12-10T13:24:47;100144.17;;;0.61;95.93
52185;BME280;38160;52.876;18.778;2022-12-10T13:27:34;100151.78;;;0.60;95.79
52185;BME280;38160;52.876;18.778;2022-12-10T13:33:18;100152.81;;;0.52;95.50
52185;BME280;38160;52.876;18.778;2022-12-10T13:35:58;100147.84;;;0.47;95.77
52185;BME280;38160;52.876;18.778;2022-12-10T13:38:34;100152.41;;;0.45;95.72
52185;BME280;38160;52.876;18.778;2022-12-10T13:41:10;100148.92;;;0.45;96.01
52185;BME280;38160;52.876;18.778;2022-12-10T13:44:00;100149.41;;;0.44;95.85
52185;BME280;38160;52.876;18.778;2022-12-10T13:46:53;100149.99;;;0.42;95.90
52185;BME280;38160;52.876;18.778;2022-12-10T13:49:35;100142.03;;;0.42;96.01
52185;BME280;38160;52.876;18.778;2022-12-10T13:52:13;100142.77;;;0.44;95.80
52185;BME280;38160;52.876;18.778;2022-12-10T13:54:58;100142.38;;;0.43;95.82
52185;BME280;38160;52.876;18.778;2022-12-10T13:57:53;100136.92;;;0.39;95.74
52185;BME280;38160;52.876;18.778;2022-12-10T14:01:12;100143.05;;;0.34;95.89
52185;BME280;38160;52.876;18.778;2022-12-10T14:04:01;100142.57;;;0.34;96.03
52185;BME280;38160;52.876;18.778;2022-12-10T14:06:43;100150.44;;;0.36;95.91
52185;BME280;38160;52.876;18.778;2022-12-10T14:09:24;100149.31;;;0.33;95.90
52185;BME280;38160;52.876;18.778;2022-12-10T14:12:07;100150.18;;;0.33;95.84
52185;BME280;38160;52.876;18.778;2022-12-10T14:14:44;100148.85;;;0.33;96.08
52185;BME280;38160;52.876;18.778;2022-12-10T15:05:40;100143.64;;;0.32;95.53
52185;BME280;38160;52.876;18.778;2022-12-10T15:08:20;100146.98;;;0.28;95.67
52185;BME280;38160;52.876;18.778;2022-12-10T15:10:57;100148.06;;;0.26;95.47
52185;BME280;38160;52.876;18.778;2022-12-10T15:13:37;100141.41;;;0.20;95.46
52185;BME280;38160;52.876;18.778;2022-12-10T15:16:38;100146.56;;;0.16;95.56
52185;BME280;38160;52.876;18.778;2022-12-10T15:19:24;100143.37;;;0.11;95.76
52185;BME280;38160;52.876;18.778;2022-12-10T15:22:17;100139.77;;;0.12;95.84
52185;BME280;38160;52.876;18.778;2022-12-10T15:24:49;100145.67;;;0.10;95.90
52185;BME280;38160;52.876;18.778;2022-12-10T15:27:23;100146.99;;;0.10;95.96
52185;BME280;38160;52.876;18.778;2022-12-10T15:29:56;100148.22;;;0.11;95.99
52185;BME280;38160;52.876;18.778;2022-12-10T15:32:28;100156.92;;;0.13;96.06
52185;BME280;38160;52.876;18.778;2022-12-10T15:35:04;100153.78;;;0.14;96.02
52185;BME280;38160;52.876;18.778;2022-12-10T15:37:40;100161.64;;;0.15;96.07
52185;BME280;38160;52.876;18.778;2022-12-10T15:40:26;100163.67;;;0.17;95.84
52185;BME280;38160;52.876;18.778;2022-12-10T15:43:29;100168.40;;;0.19;96.12
52185;BME280;38160;52.876;18.778;2022-12-10T15:49:25;100163.48;;;0.20;96.10
52185;BME280;38160;52.876;18.778;2022-12-10T15:51:57;100168.40;;;0.19;95.92
52185;BME280;38160;52.876;18.778;2022-12-10T15:54:38;100161.64;;;0.15;95.71
52185;BME280;38160;52.876;18.778;2022-12-10T15:57:24;100164.30;;;0.15;95.93
52185;BME280;38160;52.876;18.778;2022-12-10T16:00:17;100164.16;;;0.17;96.12
52185;BME280;38160;52.876;18.778;2022-12-10T16:03:01;100167.07;;;0.19;96.03
52185;BME280;38160;52.876;18.778;2022-12-10T16:05:36;100171.44;;;0.20;95.79
52185;BME280;38160;52.876;18.778;2022-12-10T16:08:28;100171.80;;;0.22;96.04
52185;BME280;38160;52.876;18.778;2022-12-10T16:11:16;100173.86;;;0.24;95.99
52185;BME280;38160;52.876;18.778;2022-12-10T16:13:52;100180.30;;;0.27;95.85
52185;BME280;38160;52.876;18.778;2022-12-10T16:16:26;100169.45;;;0.30;95.96
52185;BME280;38160;52.876;18.778;2022-12-10T16:18:58;100174.06;;;0.33;95.63
52185;BME280;38160;52.876;18.778;2022-12-10T16:21:30;100180.91;;;0.30;95.61
52185;BME280;38160;52.876;18.778;2022-12-10T16:24:02;100182.56;;;0.26;95.50
52185;BME280;38160;52.876;18.778;2022-12-10T16:26:34;100180.88;;;0.25;95.78
52185;BME280;38160;52.876;18.778;2022-12-10T16:46:16;100182.54;;;0.20;95.53
52185;BME280;38160;52.876;18.778;2022-12-10T16:48:48;100181.82;;;0.24;95.79
52185;BME280;38160;52.876;18.778;2022-12-10T16:53:59;100174.25;;;0.25;95.82
52185;BME280;38160;52.876;18.778;2022-12-10T17:55:25;100206.36;;;0.14;93.66
52185;BME280;38160;52.876;18.778;2022-12-10T17:57:57;100212.25;;;0.12;93.67
52185;BME280;38160;52.876;18.778;2022-12-10T18:16:13;100202.77;;;0.15;93.20
52185;BME280;38160;52.876;18.778;2022-12-10T18:18:48;100201.64;;;0.12;93.33
52185;BME280;38160;52.876;18.778;2022-12-10T18:21:21;100198.79;;;0.15;93.50
52185;BME280;38160;52.876;18.778;2022-12-10T18:23:52;100208.69;;;0.19;93.53
52185;BME280;38160;52.876;18.778;2022-12-10T18:26:25;100208.01;;;0.23;93.21
52185;BME280;38160;52.876;18.778;2022-12-10T18:28:59;100203.64;;;0.22;93.11
52185;BME280;38160;52.876;18.778;2022-12-10T18:31:33;100197.75;;;0.24;93.29
52185;BME280;38160;52.876;18.778;2022-12-10T18:34:08;100204.53;;;0.28;93.18
52185;BME280;38160;52.876;18.778;2022-12-10T18:36:44;100207.45;;;0.30;93.02
52185;BME280;38160;52.876;18.778;2022-12-10T18:39:24;100209.26;;;0.30;92.87
52185;BME280;38160;52.876;18.778;2022-12-10T18:41:57;100211.81;;;0.31;93.16
52185;BME280;38160;52.876;18.778;2022-12-10T18:44:29;100213.98;;;0.32;92.87
52185;BME280;38160;52.876;18.778;2022-12-10T18:47:01;100209.26;;;0.30;92.96
52185;BME280;38160;52.876;18.778;2022-12-10T18:49:33;100210.09;;;0.30;92.87
52185;BME280;38160;52.876;18.778;2022-12-10T18:52:05;100203.30;;;0.26;92.78
52185;BME280;38160;52.876;18.778;2022-12-10T18:54:37;100200.88;;;0.23;92.98
52185;BME280;38160;52.876;18.778;2022-12-10T18:57:12;100206.67;;;0.23;92.90
52185;BME280;38160;52.876;18.778;2022-12-10T18:59:44;100202.31;;;0.22;92.58
52185;BME280;38160;52.876;18.778;2022-12-10T19:02:16;100201.57;;;0.19;92.64
52185;BME280;38160;52.876;18.778;2022-12-10T19:04:47;100196.84;;;0.17;92.87
52185;BME280;38160;52.876;18.778;2022-12-10T19:07:19;100190.21;;;0.17;93.15
52185;BME280;38160;52.876;18.778;2022-12-10T19:09:51;100177.99;;;0.09;92.97
52185;BME280;38160;52.876;18.778;2022-12-10T19:15:15;100173.70;;;0.01;91.71
52185;BME280;38160;52.876;18.778;2022-12-10T19:17:48;100182.56;;;-0.06;92.46
52185;BME280;38160;52.876;18.778;2022-12-10T19:20:23;100178.91;;;-0.10;92.65
52185;BME280;38160;52.876;18.778;2022-12-10T19:22:56;100181.62;;;-0.17;92.49
52185;BME280;38160;52.876;18.778;2022-12-10T19:25:27;100187.35;;;-0.24;92.29
52185;BME280;38160;52.876;18.778;2022-12-10T19:27:59;100180.59;;;-0.22;92.32
52185;BME280;38160;52.876;18.778;2022-12-10T19:30:31;100193.08;;;-0.17;92.05
52185;BME280;38160;52.876;18.778;2022-12-10T19:33:11;100182.31;;;-0.21;92.10
52185;BME280;38160;52.876;18.778;2022-12-10T19:35:44;100196.41;;;-0.21;92.57
52185;BME280;38160;52.876;18.778;2022-12-10T19:38:16;100194.34;;;-0.23;92.26
52185;BME280;38160;52.876;18.778;2022-12-10T19:40:48;100201.81;;;-0.22;92.03
52185;BME280;38160;52.876;18.778;2022-12-10T19:43:21;100200.61;;;-0.24;92.00
52185;BME280;38160;52.876;18.778;2022-12-10T19:45:53;100205.34;;;-0.22;92.19
52185;BME280;38160;52.876;18.778;2022-12-10T19:48:41;100210.25;;;-0.23;91.83
52185;BME280;38160;52.876;18.778;2022-12-10T19:51:13;100209.51;;;-0.25;92.31
52185;BME280;38160;52.876;18.778;2022-12-10T20:10:28;100198.70;;;-0.34;91.38
52185;BME280;38160;52.876;18.778;2022-12-10T20:13:00;100203.30;;;-0.31;91.32
52185;BME280;38160;52.876;18.778;2022-12-10T20:15:32;100196.98;;;-0.35;91.39
52185;BME280;38160;52.876;18.778;2022-12-10T20:18:04;100199.92;;;-0.33;91.33
52185;BME280;38160;52.876;18.778;2022-12-10T20:20:36;100203.16;;;-0.35;91.44
52185;BME280;38160;52.876;18.778;2022-12-10T20:23:08;100193.13;;;-0.37;91.42
52185;BME280;38160;52.876;18.778;2022-12-10T20:25:40;100190.22;;;-0.39;90.93
52185;BME280;38160;52.876;18.778;2022-12-10T20:28:14;100187.28;;;-0.42;91.08
52185;BME280;38160;52.876;18.778;2022-12-10T20:30:47;100188.41;;;-0.39;91.47
52185;BME280;38160;52.876;18.778;2022-12-10T20:33:19;100183.95;;;-0.38;91.35
52185;BME280;38160;52.876;18.778;2022-12-10T20:35:51;100187.83;;;-0.37;91.43
52185;BME280;38160;52.876;18.778;2022-12-10T20:38:23;100189.32;;;-0.33;91.50
52185;BME280;38160;52.876;18.778;2022-12-10T20:40:55;100192.07;;;-0.34;91.39
52185;BME280;38160;52.876;18.778;2022-12-10T20:43:27;100196.53;;;-0.35;91.17
52185;BME280;38160;52.876;18.778;2022-12-10T20:46:00;100191.42;;;-0.38;91.32
52185;BME280;38160;52.876;18.778;2022-12-10T20:48:32;100190.31;;;-0.41;91.07
52185;BME280;38160;52.876;18.778;2022-12-10T20:51:04;100193.55;;;-0.43;91.10
52185;BME280;38160;52.876;18.778;2022-12-10T20:53:36;100193.06;;;-0.43;91.32
52185;BME280;38160;52.876;18.778;2022-12-10T20:56:22;100193.06;;;-0.43;91.19
52185;BME280;38160;52.876;18.778;2022-12-10T20:58:55;100202.25;;;-0.41;90.91
52185;BME280;38160;52.876;18.778;2022-12-10T21:01:27;100205.09;;;-0.44;91.36
52185;BME280;38160;52.876;18.778;2022-12-10T21:03:58;100209.60;;;-0.52;90.97
52185;BME280;38160;52.876;18.778;2022-12-10T21:06:32;100209.34;;;-0.54;91.19
52185;BME280;38160;52.876;18.778;2022-12-10T21:09:04;100218.71;;;-0.56;90.95
52185;BME280;38160;52.876;18.778;2022-12-10T21:14:29;100218.80;;;-0.57;91.17
52185;BME280;38160;52.876;18.778;2022-12-10T21:17:01;100219.77;;;-0.58;91.40
52185;BME280;38160;52.876;18.778;2022-12-10T21:19:35;100216.73;;;-0.59;91.46
52185;BME280;38160;52.876;18.778;2022-12-10T21:22:11;100221.45;;;-0.57;91.52
52185;BME280;38160;52.876;18.778;2022-12-10T21:24:44;100221.19;;;-0.60;91.30
52185;BME280;38160;52.876;18.778;2022-12-10T21:27:16;100217.80;;;-0.62;91.32
52185;BME280;38160;52.876;18.778;2022-12-10T21:29:48;100219.07;;;-0.68;91.26
52185;BME280;38160;52.876;18.778;2022-12-10T21:32:19;100203.75;;;-0.70;91.54
52185;BME280;38160;52.876;18.778;2022-12-10T21:34:51;100201.59;;;-0.77;91.21
52185;BME280;38160;52.876;18.778;2022-12-10T21:37:23;100211.70;;;-0.70;91.13
52185;BME280;38160;52.876;18.778;2022-12-10T21:39:55;100208.39;;;-0.73;90.93
52185;BME280;38160;52.876;18.778;2022-12-10T21:42:29;100204.38;;;-0.79;91.00
52185;BME280;38160;52.876;18.778;2022-12-10T21:45:25;100201.16;;;-0.84;90.98
52185;BME280;38160;52.876;18.778;2022-12-10T21:47:58;100191.35;;;-0.89;91.15
52185;BME280;38160;52.876;18.778;2022-12-10T21:50:31;100194.94;;;-0.90;91.31
52185;BME280;38160;52.876;18.778;2022-12-10T21:53:05;100189.10;;;-0.95;91.10
52185;BME280;38160;52.876;18.778;2022-12-10T21:55:38;100190.73;;;-1.00;91.20
52185;BME280;38160;52.876;18.778;2022-12-10T21:58:12;100190.83;;;-1.01;91.23
52185;BME280;38160;52.876;18.778;2022-12-10T22:03:56;100177.14;;;-1.08;91.09
52185;BME280;38160;52.876;18.778;2022-12-10T22:06:28;100171.18;;;-1.05;91.33
52185;BME280;38160;52.876;18.778;2022-12-10T22:09:00;100169.28;;;-1.02;91.17
52185;BME280;38160;52.876;18.778;2022-12-10T22:11:32;100168.05;;;-1.04;91.00
52185;BME280;38160;52.876;18.778;2022-12-10T22:14:09;100167.20;;;-1.05;90.94
52185;BME280;38160;52.876;18.778;2022-12-10T22:16:43;100163.81;;;-1.07;91.22
52185;BME280;38160;52.876;18.778;2022-12-10T22:22:39;100175.25;;;-1.06;91.00
52185;BME280;38160;52.876;18.778;2022-12-10T22:25:10;100177.72;;;-1.10;91.13
52185;BME280;38160;52.876;18.778;2022-12-10T22:34:31;100175.64;;;-1.12;91.03
52185;BME280;38160;52.876;18.778;2022-12-10T22:37:02;100174.32;;;-1.12;91.10
52185;BME280;38160;52.876;18.778;2022-12-10T22:39:34;100172.81;;;-1.09;91.15
52185;BME280;38160;52.876;18.778;2022-12-10T22:42:10;100171.18;;;-1.05;91.38
52185;BME280;38160;52.876;18.778;2022-12-10T22:44:41;100179.78;;;-1.01;91.36
52185;BME280;38160;52.876;18.778;2022-12-10T22:47:13;100186.19;;;-0.98;91.14
52185;BME280;38160;52.876;18.778;2022-12-10T22:49:45;100184.65;;;-0.95;91.36
52185;BME280;38160;52.876;18.778;2022-12-10T22:55:29;100186.28;;;-0.99;91.29
52185;BME280;38160;52.876;18.778;2022-12-10T22:58:00;100190.38;;;-1.01;91.00
52185;BME280;38160;52.876;18.778;2022-12-10T23:00:33;100179.31;;;-1.08;91.12
52185;BME280;38160;52.876;18.778;2022-12-10T23:03:05;100132.25;;;-1.37;90.75
52185;BME280;38160;52.876;18.778;2022-12-10T23:05:37;100180.89;;;-1.18;90.98
52185;BME280;38160;52.876;18.778;2022-12-10T23:08:09;100152.59;;;-1.37;91.01
52185;BME280;38160;52.876;18.778;2022-12-10T23:14:29;100180.49;;;-1.19;91.07
52185;BME280;38160;52.876;18.778;2022-12-10T23:17:01;100172.19;;;-1.20;91.08
52185;BME280;38160;52.876;18.778;2022-12-10T23:19:33;100168.22;;;-1.20;91.11
52185;BME280;38160;52.876;18.778;2022-12-10T23:22:05;100165.18;;;-1.21;91.21
52185;BME280;38160;52.876;18.778;2022-12-10T23:24:37;100160.06;;;-1.17;91.28
52185;BME280;38160;52.876;18.778;2022-12-10T23:27:09;100160.72;;;-1.13;91.30
52185;BME280;38160;52.876;18.778;2022-12-10T23:29:41;100155.33;;;-1.12;91.24
52185;BME280;38160;52.876;18.778;2022-12-10T23:32:13;100163.06;;;-1.09;90.92
52185;BME280;38160;52.876;18.778;2022-12-10T23:34:44;100159.09;;;-1.09;91.01
52185;BME280;38160;52.876;18.778;2022-12-10T23:37:16;100158.16;;;-1.15;90.76
52185;BME280;38160;52.876;18.778;2022-12-10T23:39:51;100153.56;;;-1.18;91.01
52185;BME280;38160;52.876;18.778;2022-12-10T23:42:29;100150.34;;;-1.16;91.15
52185;BME280;38160;52.876;18.778;2022-12-10T23:45:04;100148.36;;;-1.20;91.06
52185;BME280;38160;52.876;18.778;2022-12-10T23:47:36;100152.06;;;-1.22;90.88
52185;BME280;38160;52.876;18.778;2022-12-10T23:50:08;100152.07;;;-1.30;90.88
52185;BME280;38160;52.876;18.778;2022-12-10T23:52:40;100148.05;;;-1.35;90.81
52185;BME280;38160;52.876;18.778;2022-12-10T23:55:12;100150.42;;;-1.38;91.06
52185;BME280;38160;52.876;18.778;2022-12-10T23:57:43;100144.16;;;-1.37;91.08
